sensor_id;sensor_type;location;lat;lon;timestamp;pressure;altitude;pressure_sealevel;temperature;humidity
61018;BME280;48171;51.550;5.434;2023-03-09T00:01:57;99086.94;;;1.35;100.00
61018;BME280;48171;51.550;5.434;2023-03-09T00:04:23;99085.19;;;1.39;100.00
61018;BME280;48171;51.550;5.434;2023-03-09T00:06:49;99081.72;;;1.38;100.00
61018;BME280;48171;51.550;5.434;2023-03-09T00:09:15;99068.69;;;1.37;100.00
61018;BME280;48171;51.550;5.434;2023-03-09T00:11:43;99060.91;;;1.32;100.00
61018;BME280;48171;51.550;5.434;2023-03-09T00:14:09;99077.38;;;1.34;100.00
61018;BME280;48171;51.550;5.434;2023-03-09T00:16:37;99079.97;;;1.34;100.00
61018;BME280;48171;51.550;5.434;2023-03-09T00:19:03;99056.56;;;1.34;100.00
61018;BME280;48171;51.550;5.434;2023-03-09T00:21:29;99055.69;;;1.31;100.00
61018;BME280;48171;51.550;5.434;2023-03-09T00:24:13;99087.78;;;1.31;100.00
61018;BME280;48171;51.550;5.434;2023-03-09T00:26:42;99089.53;;;1.28;100.00
61018;BME280;48171;51.550;5.434;2023-03-09T00:29:09;99099.03;;;1.29;100.00
61018;BME280;48171;51.550;5.434;2023-03-09T00:31:35;99103.41;;;1.31;100.00
61018;BME280;48171;51.550;5.434;2023-03-09T00:34:01;99113.81;;;1.31;100.00
61018;BME280;48171;51.550;5.434;2023-03-09T00:36:26;99113.81;;;1.31;100.00
61018;BME280;48171;51.550;5.434;2023-03-09T00:38:53;99122.47;;;1.30;100.00
61018;BME280;48171;51.550;5.434;2023-03-09T00:41:19;99120.72;;;1.31;100.00
61018;BME280;48171;51.550;5.434;2023-03-09T00:43:45;99120.72;;;1.28;100.00
61018;BME280;48171;51.550;5.434;2023-03-09T00:46:11;99133.72;;;1.31;100.00
61018;BME280;48171;51.550;5.434;2023-03-09T00:48:37;99133.72;;;1.29;100.00
61018;BME280;48171;51.550;5.434;2023-03-09T00:51:02;99137.22;;;1.33;100.00
61018;BME280;48171;51.550;5.434;2023-03-09T00:53:28;99141.56;;;1.32;100.00
61018;BME280;48171;51.550;5.434;2023-03-09T00:55:53;99135.50;;;1.33;100.00
61018;BME280;48171;51.550;5.434;2023-03-09T00:58:18;99135.47;;;1.30;100.00
61018;BME280;48171;51.550;5.434;2023-03-09T01:00:44;99146.75;;;1.32;100.00
61018;BME280;48171;51.550;5.434;2023-03-09T01:03:09;99156.31;;;1.32;100.00
61018;BME280;48171;51.550;5.434;2023-03-09T01:05:36;99160.63;;;1.34;100.00
61018;BME280;48171;51.550;5.434;2023-03-09T01:08:02;99160.63;;;1.34;100.00
61018;BME280;48171;51.550;5.434;2023-03-09T01:10:27;99165.84;;;1.36;100.00
61018;BME280;48171;51.550;5.434;2023-03-09T01:12:52;99195.31;;;1.35;100.00
61018;BME280;48171;51.550;5.434;2023-03-09T01:15:20;99210.06;;;1.31;100.00
61018;BME280;48171;51.550;5.434;2023-03-09T01:17:45;99204.00;;;1.38;100.00
61018;BME280;48171;51.550;5.434;2023-03-09T01:20:12;99203.13;;;1.30;100.00
61018;BME280;48171;51.550;5.434;2023-03-09T01:22:38;99199.66;;;1.28;100.00
61018;BME280;48171;51.550;5.434;2023-03-09T01:25:04;99205.72;;;1.29;100.00
61018;BME280;48171;51.550;5.434;2023-03-09T01:27:29;99190.97;;;1.31;100.00
61018;BME280;48171;51.550;5.434;2023-03-09T01:29:55;99204.84;;;1.33;100.00
61018;BME280;48171;51.550;5.434;2023-03-09T01:32:20;99217.88;;;1.34;100.00
61018;BME280;48171;51.550;5.434;2023-03-09T01:34:45;99227.41;;;1.34;100.00
61018;BME280;48171;51.550;5.434;2023-03-09T01:37:11;99221.34;;;1.30;100.00
61018;BME280;48171;51.550;5.434;2023-03-09T01:39:36;99226.53;;;1.32;100.00
61018;BME280;48171;51.550;5.434;2023-03-09T01:42:02;99234.34;;;1.32;100.00
61018;BME280;48171;51.550;5.434;2023-03-09T01:44:27;99226.56;;;1.33;100.00
61018;BME280;48171;51.550;5.434;2023-03-09T01:46:54;99230.88;;;1.34;100.00
61018;BME280;48171;51.550;5.434;2023-03-09T01:49:42;99234.34;;;1.35;100.00
61018;BME280;48171;51.550;5.434;2023-03-09T01:52:14;99231.75;;;1.35;100.00
61018;BME280;48171;51.550;5.434;2023-03-09T01:55:03;99234.38;;;1.39;100.00
61018;BME280;48171;51.550;5.434;2023-03-09T02:00:00;99243.06;;;1.43;100.00
61018;BME280;48171;51.550;5.434;2023-03-09T02:02:35;99250.00;;;1.39;100.00
61018;BME280;48171;51.550;5.434;2023-03-09T02:05:04;99254.34;;;1.42;100.00
61018;BME280;48171;51.550;5.434;2023-03-09T02:07:32;99267.34;;;1.42;100.00
61018;BME280;48171;51.550;5.434;2023-03-09T02:10:12;99276.88;;;1.43;100.00
61018;BME280;48171;51.550;5.434;2023-03-09T02:12:39;99281.22;;;1.43;100.00
61018;BME280;48171;51.550;5.434;2023-03-09T02:15:06;99267.34;;;1.42;100.00
61018;BME280;48171;51.550;5.434;2023-03-09T02:17:31;99266.50;;;1.42;100.00
61018;BME280;48171;51.550;5.434;2023-03-09T02:20:13;99259.56;;;1.48;100.00
61018;BME280;48171;51.550;5.434;2023-03-09T02:22:42;99256.97;;;1.50;100.00
61018;BME280;48171;51.550;5.434;2023-03-09T02:25:16;99250.91;;;1.51;100.00
61018;BME280;48171;51.550;5.434;2023-03-09T02:27:43;99266.50;;;1.51;100.00
61018;BME280;48171;51.550;5.434;2023-03-09T02:30:10;99273.44;;;1.49;100.00
61018;BME280;48171;51.550;5.434;2023-03-09T02:32:36;99281.25;;;1.49;100.00
61018;BME280;48171;51.550;5.434;2023-03-09T02:35:01;99277.78;;;1.47;100.00
61018;BME280;48171;51.550;5.434;2023-03-09T02:37:32;99288.19;;;1.47;100.00
61018;BME280;48171;51.550;5.434;2023-03-09T02:42:45;99294.25;;;1.44;100.00
61018;BME280;48171;51.550;5.434;2023-03-09T02:45:14;99285.56;;;1.42;100.00
61018;BME280;48171;51.550;5.434;2023-03-09T02:47:41;99289.91;;;1.40;100.00
61018;BME280;48171;51.550;5.434;2023-03-09T02:50:07;99289.03;;;1.39;100.00
61018;BME280;48171;51.550;5.434;2023-03-09T02:52:34;99289.00;;;1.41;100.00
61018;BME280;48171;51.550;5.434;2023-03-09T02:55:00;99295.13;;;1.42;100.00
61018;BME280;48171;51.550;5.434;2023-03-09T02:57:25;99290.78;;;1.42;100.00
61018;BME280;48171;51.550;5.434;2023-03-09T02:59:50;99294.25;;;1.44;100.00
61018;BME280;48171;51.550;5.434;2023-03-09T03:02:16;99296.84;;;1.44;100.00
61018;BME280;48171;51.550;5.434;2023-03-09T03:04:41;99304.69;;;1.46;100.00
61018;BME280;48171;51.550;5.434;2023-03-09T03:07:07;99292.53;;;1.48;100.00
61018;BME280;48171;51.550;5.434;2023-03-09T03:09:32;99286.47;;;1.49;100.00
61018;BME280;48171;51.550;5.434;2023-03-09T03:11:57;99302.06;;;1.49;100.00
61018;BME280;48171;51.550;5.434;2023-03-09T03:14:23;99293.41;;;1.50;100.00
61018;BME280;48171;51.550;5.434;2023-03-09T03:16:48;99294.28;;;1.50;100.00
61018;BME280;48171;51.550;5.434;2023-03-09T03:19:13;99291.69;;;1.50;100.00
61018;BME280;48171;51.550;5.434;2023-03-09T03:21:39;99282.13;;;1.46;100.00
61018;BME280;48171;51.550;5.434;2023-03-09T03:24:04;99305.56;;;1.51;100.00
61018;BME280;48171;51.550;5.434;2023-03-09T03:26:29;99307.28;;;1.50;100.00
61018;BME280;48171;51.550;5.434;2023-03-09T03:28:55;99321.16;;;1.49;100.00
61018;BME280;48171;51.550;5.434;2023-03-09T03:31:20;99325.50;;;1.49;100.00
61018;BME280;48171;51.550;5.434;2023-03-09T03:33:45;99321.16;;;1.48;100.00
61018;BME280;48171;51.550;5.434;2023-03-09T03:36:11;99330.69;;;1.49;100.00
61018;BME280;48171;51.550;5.434;2023-03-09T03:38:36;99343.72;;;1.50;100.00
61018;BME280;48171;51.550;5.434;2023-03-09T03:41:01;99350.66;;;1.50;100.00
61018;BME280;48171;51.550;5.434;2023-03-09T03:43:27;99357.59;;;1.49;100.00
61018;BME280;48171;51.550;5.434;2023-03-09T03:45:53;99360.22;;;1.52;100.00
61018;BME280;48171;51.550;5.434;2023-03-09T03:48:18;99361.97;;;1.52;100.00
61018;BME280;48171;51.550;5.434;2023-03-09T03:50:43;99368.88;;;1.51;100.00
61018;BME280;48171;51.550;5.434;2023-03-09T03:53:09;99370.63;;;1.51;100.00
61018;BME280;48171;51.550;5.434;2023-03-09T03:55:34;99368.00;;;1.49;100.00
61018;BME280;48171;51.550;5.434;2023-03-09T03:57:59;99369.75;;;1.49;100.00
61018;BME280;48171;51.550;5.434;2023-03-09T04:00:25;99380.13;;;1.47;100.00
61018;BME280;48171;51.550;5.434;2023-03-09T04:02:51;99382.72;;;1.47;100.00
61018;BME280;48171;51.550;5.434;2023-03-09T04:05:16;99376.69;;;1.48;100.00
61018;BME280;48171;51.550;5.434;2023-03-09T04:07:42;99370.63;;;1.51;100.00
61018;BME280;48171;51.550;5.434;2023-03-09T04:10:08;99380.19;;;1.52;100.00
61018;BME280;48171;51.550;5.434;2023-03-09T04:12:33;99392.31;;;1.53;100.00
61018;BME280;48171;51.550;5.434;2023-03-09T04:14:59;99390.59;;;1.52;100.00
61018;BME280;48171;51.550;5.434;2023-03-09T04:17:24;99397.50;;;1.51;100.00
61018;BME280;48171;51.550;5.434;2023-03-09T04:19:49;99390.56;;;1.50;100.00
61018;BME280;48171;51.550;5.434;2023-03-09T04:22:15;99396.63;;;1.51;100.00
61018;BME280;48171;51.550;5.434;2023-03-09T04:24:40;99398.41;;;1.52;100.00
61018;BME280;48171;51.550;5.434;2023-03-09T04:27:05;99407.06;;;1.52;100.00
61018;BME280;48171;51.550;5.434;2023-03-09T04:29:31;99410.53;;;1.53;100.00
61018;BME280;48171;51.550;5.434;2023-03-09T04:31:56;99408.78;;;1.50;100.00
61018;BME280;48171;51.550;5.434;2023-03-09T04:34:21;99397.50;;;1.48;100.00
61018;BME280;48171;51.550;5.434;2023-03-09T04:36:46;99411.41;;;1.50;100.00
61018;BME280;48171;51.550;5.434;2023-03-09T04:39:12;99416.59;;;1.50;100.00
61018;BME280;48171;51.550;5.434;2023-03-09T04:41:37;99414.84;;;1.48;100.00
61018;BME280;48171;51.550;5.434;2023-03-09T04:44:02;99420.06;;;1.48;100.00
61018;BME280;48171;51.550;5.434;2023-03-09T04:46:28;99417.41;;;1.45;100.00
61018;BME280;48171;51.550;5.434;2023-03-09T04:48:53;99436.56;;;1.50;100.00
61018;BME280;48171;51.550;5.434;2023-03-09T04:51:19;99433.97;;;1.50;100.00
61018;BME280;48171;51.550;5.434;2023-03-09T04:53:44;99440.03;;;1.52;100.00
61018;BME280;48171;51.550;5.434;2023-03-09T04:56:10;99449.56;;;1.53;100.00
61018;BME280;48171;51.550;5.434;2023-03-09T04:58:35;99443.50;;;1.51;100.00
61018;BME280;48171;51.550;5.434;2023-03-09T05:01:00;99440.03;;;1.50;100.00
61018;BME280;48171;51.550;5.434;2023-03-09T05:03:29;99444.34;;;1.51;100.00
61018;BME280;48171;51.550;5.434;2023-03-09T05:05:55;99455.66;;;1.52;100.00
61018;BME280;48171;51.550;5.434;2023-03-09T05:08:20;99447.78;;;1.47;100.00
61018;BME280;48171;51.550;5.434;2023-03-09T05:10:46;99458.25;;;1.50;100.00
61018;BME280;48171;51.550;5.434;2023-03-09T05:13:12;99451.28;;;1.49;100.00
61018;BME280;48171;51.550;5.434;2023-03-09T05:15:39;99466.03;;;1.49;100.00
61018;BME280;48171;51.550;5.434;2023-03-09T05:18:05;99469.50;;;1.49;100.00
61018;BME280;48171;51.550;5.434;2023-03-09T05:20:30;99473.81;;;1.47;100.00
61018;BME280;48171;51.550;5.434;2023-03-09T05:22:57;99485.09;;;1.45;100.00
61018;BME280;48171;51.550;5.434;2023-03-09T05:25:22;99489.44;;;1.47;100.00
61018;BME280;48171;51.550;5.434;2023-03-09T05:27:48;99495.53;;;1.48;100.00
61018;BME280;48171;51.550;5.434;2023-03-09T05:30:15;99485.94;;;1.45;100.00
61018;BME280;48171;51.550;5.434;2023-03-09T05:32:40;99486.81;;;1.44;100.00
61018;BME280;48171;51.550;5.434;2023-03-09T05:35:06;99493.78;;;1.47;100.00
61018;BME280;48171;51.550;5.434;2023-03-09T05:37:34;99500.72;;;1.46;100.00
61018;BME280;48171;51.550;5.434;2023-03-09T05:40:00;99488.56;;;1.45;100.00
61018;BME280;48171;51.550;5.434;2023-03-09T05:42:25;99473.78;;;1.43;100.00
61018;BME280;48171;51.550;5.434;2023-03-09T05:44:50;99479.88;;;1.42;100.00
61018;BME280;48171;51.550;5.434;2023-03-09T05:47:16;99485.91;;;1.40;100.00
61018;BME280;48171;51.550;5.434;2023-03-09T05:49:41;99483.31;;;1.40;100.00
61018;BME280;48171;51.550;5.434;2023-03-09T05:52:07;99477.25;;;1.40;100.00
61018;BME280;48171;51.550;5.434;2023-03-09T05:54:32;99484.19;;;1.43;100.00
61018;BME280;48171;51.550;5.434;2023-03-09T05:56:58;99490.28;;;1.43;100.00
61018;BME280;48171;51.550;5.434;2023-03-09T05:59:23;99488.53;;;1.40;100.00
61018;BME280;48171;51.550;5.434;2023-03-09T06:01:49;99506.78;;;1.44;100.00
61018;BME280;48171;51.550;5.434;2023-03-09T06:04:14;99519.81;;;1.47;100.00
61018;BME280;48171;51.550;5.434;2023-03-09T06:06:40;99512.84;;;1.44;100.00
61018;BME280;48171;51.550;5.434;2023-03-09T06:09:05;99519.81;;;1.48;100.00
61018;BME280;48171;51.550;5.434;2023-03-09T06:11:30;99508.53;;;1.48;100.00
61018;BME280;48171;51.550;5.434;2023-03-09T06:13:56;99511.13;;;1.49;100.00
61018;BME280;48171;51.550;5.434;2023-03-09T06:16:21;99512.00;;;1.48;100.00
61018;BME280;48171;51.550;5.434;2023-03-09T06:18:46;99512.00;;;1.47;100.00
61018;BME280;48171;51.550;5.434;2023-03-09T06:21:13;99536.28;;;1.47;100.00
61018;BME280;48171;51.550;5.434;2023-03-09T06:23:39;99531.13;;;1.50;100.00
61018;BME280;48171;51.550;5.434;2023-03-09T06:26:06;99531.09;;;1.49;100.00
61018;BME280;48171;51.550;5.434;2023-03-09T06:28:32;99532.00;;;1.52;100.00
61018;BME280;48171;51.550;5.434;2023-03-09T06:30:58;99538.09;;;1.54;100.00
61018;BME280;48171;51.550;5.434;2023-03-09T06:33:23;99551.97;;;1.55;100.00
61018;BME280;48171;51.550;5.434;2023-03-09T06:35:48;99558.06;;;1.57;100.00
61018;BME280;48171;51.550;5.434;2023-03-09T06:38:14;99558.06;;;1.58;100.00
61018;BME280;48171;51.550;5.434;2023-03-09T06:40:39;99556.38;;;1.60;100.00
61018;BME280;48171;51.550;5.434;2023-03-09T06:43:04;99564.19;;;1.65;100.00
61018;BME280;48171;51.550;5.434;2023-03-09T06:45:30;99550.31;;;1.65;100.00
61018;BME280;48171;51.550;5.434;2023-03-09T06:47:56;99568.59;;;1.68;100.00
61018;BME280;48171;51.550;5.434;2023-03-09T06:50:23;99570.31;;;1.66;100.00
61018;BME280;48171;51.550;5.434;2023-03-09T06:52:49;99573.78;;;1.68;100.00
61018;BME280;48171;51.550;5.434;2023-03-09T06:55:15;99577.25;;;1.68;100.00
61018;BME280;48171;51.550;5.434;2023-03-09T06:57:40;99589.38;;;1.66;100.00
61018;BME280;48171;51.550;5.434;2023-03-09T07:00:07;99605.91;;;1.68;100.00
61018;BME280;48171;51.550;5.434;2023-03-09T07:02:34;99604.16;;;1.69;100.00
61018;BME280;48171;51.550;5.434;2023-03-09T07:04:59;99611.13;;;1.70;100.00
61018;BME280;48171;51.550;5.434;2023-03-09T07:07:24;99628.47;;;1.71;100.00
61018;BME280;48171;51.550;5.434;2023-03-09T07:09:50;99628.47;;;1.71;100.00
61018;BME280;48171;51.550;5.434;2023-03-09T07:12:15;99635.44;;;1.73;100.00
61018;BME280;48171;51.550;5.434;2023-03-09T07:14:40;99642.41;;;1.74;100.00
61018;BME280;48171;51.550;5.434;2023-03-09T07:17:11;99658.88;;;1.75;100.00
61018;BME280;48171;51.550;5.434;2023-03-09T07:19:37;99672.75;;;1.71;100.00
61018;BME280;48171;51.550;5.434;2023-03-09T07:22:02;99664.00;;;1.67;100.00
61018;BME280;48171;51.550;5.434;2023-03-09T07:24:27;99664.91;;;1.68;100.00
61018;BME280;48171;51.550;5.434;2023-03-09T07:26:53;99672.75;;;1.71;100.00
61018;BME280;48171;51.550;5.434;2023-03-09T07:29:18;99654.47;;;1.66;100.00
61018;BME280;48171;51.550;5.434;2023-03-09T07:31:45;99665.88;;;1.79;100.00
61018;BME280;48171;51.550;5.434;2023-03-09T07:34:10;99666.72;;;1.79;100.00
61018;BME280;48171;51.550;5.434;2023-03-09T07:36:35;99669.34;;;1.81;100.00
61018;BME280;48171;51.550;5.434;2023-03-09T07:39:01;99688.44;;;1.82;100.00
61018;BME280;48171;51.550;5.434;2023-03-09T07:41:26;99693.66;;;1.82;100.00
61018;BME280;48171;51.550;5.434;2023-03-09T07:43:51;99689.34;;;1.84;100.00
61018;BME280;48171;51.550;5.434;2023-03-09T07:46:17;99691.97;;;1.85;100.00
61018;BME280;48171;51.550;5.434;2023-03-09T07:48:44;99698.94;;;1.86;100.00
61018;BME280;48171;51.550;5.434;2023-03-09T07:51:10;99701.53;;;1.86;100.00
61018;BME280;48171;51.550;5.434;2023-03-09T07:53:37;99699.81;;;1.87;100.00
61018;BME280;48171;51.550;5.434;2023-03-09T07:56:05;99705.03;;;1.91;100.00
61018;BME280;48171;51.550;5.434;2023-03-09T07:58:32;99692.94;;;1.95;100.00
61018;BME280;48171;51.550;5.434;2023-03-09T08:00:57;99695.56;;;1.99;100.00
61018;BME280;48171;51.550;5.434;2023-03-09T08:03:24;99712.09;;;2.02;100.00
61018;BME280;48171;51.550;5.434;2023-03-09T08:05:49;99717.34;;;2.05;100.00
61018;BME280;48171;51.550;5.434;2023-03-09T08:08:15;99719.09;;;2.07;100.00
61018;BME280;48171;51.550;5.434;2023-03-09T08:10:49;99721.69;;;2.07;100.00
61018;BME280;48171;51.550;5.434;2023-03-09T08:13:15;99721.72;;;2.09;100.00
61018;BME280;48171;51.550;5.434;2023-03-09T08:15:40;99720.84;;;2.08;100.00
61018;BME280;48171;51.550;5.434;2023-03-09T08:18:06;99733.06;;;2.15;100.00
61018;BME280;48171;51.550;5.434;2023-03-09T08:20:32;99740.00;;;2.15;100.00
61018;BME280;48171;51.550;5.434;2023-03-09T08:22:57;99737.44;;;2.19;100.00
61018;BME280;48171;51.550;5.434;2023-03-09T08:25:22;99741.78;;;2.19;100.00
61018;BME280;48171;51.550;5.434;2023-03-09T08:27:48;99747.84;;;2.16;100.00
61018;BME280;48171;51.550;5.434;2023-03-09T08:30:15;99743.47;;;2.12;100.00
61018;BME280;48171;51.550;5.434;2023-03-09T08:32:41;99752.16;;;2.13;100.00
61018;BME280;48171;51.550;5.434;2023-03-09T08:35:09;99751.25;;;2.11;100.00
61018;BME280;48171;51.550;5.434;2023-03-09T08:37:34;99753.81;;;2.08;100.00
61018;BME280;48171;51.550;5.434;2023-03-09T08:39:59;99753.84;;;2.09;100.00
61018;BME280;48171;51.550;5.434;2023-03-09T08:42:25;99770.38;;;2.13;100.00
61018;BME280;48171;51.550;5.434;2023-03-09T08:44:51;99777.34;;;2.14;100.00
61018;BME280;48171;51.550;5.434;2023-03-09T08:47:16;99780.84;;;2.17;100.00
61018;BME280;48171;51.550;5.434;2023-03-09T08:49:42;99766.13;;;2.21;100.00
61018;BME280;48171;51.550;5.434;2023-03-09T08:52:08;99767.03;;;2.28;100.00
61018;BME280;48171;51.550;5.434;2023-03-09T08:54:33;99781.88;;;2.33;100.00
61018;BME280;48171;51.550;5.434;2023-03-09T08:56:59;99768.84;;;2.35;100.00
61018;BME280;48171;51.550;5.434;2023-03-09T08:59:24;99775.84;;;2.39;100.00
61018;BME280;48171;51.550;5.434;2023-03-09T09:01:49;99776.69;;;2.36;100.00
61018;BME280;48171;51.550;5.434;2023-03-09T09:04:14;99781.06;;;2.39;100.00
61018;BME280;48171;51.550;5.434;2023-03-09T09:06:40;99803.69;;;2.43;100.00
61018;BME280;48171;51.550;5.434;2023-03-09T09:09:05;99807.19;;;2.45;100.00
61018;BME280;48171;51.550;5.434;2023-03-09T09:11:30;99808.03;;;2.46;100.00
61018;BME280;48171;51.550;5.434;2023-03-09T09:13:58;99817.63;;;2.50;100.00
61018;BME280;48171;51.550;5.434;2023-03-09T09:16:23;99794.97;;;2.39;100.00
61018;BME280;48171;51.550;5.434;2023-03-09T09:18:49;99828.09;;;2.53;100.00
61018;BME280;48171;51.550;5.434;2023-03-09T09:21:15;99822.91;;;2.53;100.00
61018;BME280;48171;51.550;5.434;2023-03-09T09:23:42;99816.84;;;2.57;100.00
61018;BME280;48171;51.550;5.434;2023-03-09T09:26:09;99815.13;;;2.59;100.00
61018;BME280;48171;51.550;5.434;2023-03-09T09:28:36;99815.16;;;2.64;100.00
61018;BME280;48171;51.550;5.434;2023-03-09T09:31:03;99810.88;;;2.72;100.00
61018;BME280;48171;51.550;5.434;2023-03-09T09:33:31;99810.94;;;2.79;100.00
61018;BME280;48171;51.550;5.434;2023-03-09T09:38:29;99803.22;;;2.93;100.00
61018;BME280;48171;51.550;5.434;2023-03-09T09:40:56;99811.97;;;3.00;100.00
61018;BME280;48171;51.550;5.434;2023-03-09T09:43:23;99824.16;;;3.04;100.00
61018;BME280;48171;51.550;5.434;2023-03-09T09:45:51;99839.84;;;3.07;100.00
61018;BME280;48171;51.550;5.434;2023-03-09T09:48:20;99831.13;;;3.04;100.00
61018;BME280;48171;51.550;5.434;2023-03-09T09:51:16;99835.41;;;2.98;100.00
61018;BME280;48171;51.550;5.434;2023-03-09T09:53:59;99842.38;;;2.96;100.00
61018;BME280;48171;51.550;5.434;2023-03-09T09:56:36;99833.69;;;2.97;100.00
61018;BME280;48171;51.550;5.434;2023-03-09T09:59:14;99826.72;;;2.98;100.00
61018;BME280;48171;51.550;5.434;2023-03-09T10:04:16;99838.94;;;3.02;100.00
61018;BME280;48171;51.550;5.434;2023-03-09T10:06:45;99842.44;;;3.04;100.00
61018;BME280;48171;51.550;5.434;2023-03-09T10:09:27;99841.56;;;3.07;100.00
61018;BME280;48171;51.550;5.434;2023-03-09T10:11:57;99841.56;;;3.07;100.00
61018;BME280;48171;51.550;5.434;2023-03-09T10:14:37;99842.44;;;3.09;100.00
61018;BME280;48171;51.550;5.434;2023-03-09T10:18:17;99841.66;;;3.16;100.00
61018;BME280;48171;51.550;5.434;2023-03-09T10:20:36;99841.66;;;3.20;100.00
61018;BME280;48171;51.550;5.434;2023-03-09T10:23:15;99843.41;;;3.23;100.00
61018;BME280;48171;51.550;5.434;2023-03-09T10:25:44;99836.47;;;3.24;100.00
61018;BME280;48171;51.550;5.434;2023-03-09T10:28:17;99846.97;;;3.30;100.00
61018;BME280;48171;51.550;5.434;2023-03-09T10:31:08;99835.66;;;3.37;100.00
61018;BME280;48171;51.550;5.434;2023-03-09T10:34:09;99831.38;;;3.47;100.00
61018;BME280;48171;51.550;5.434;2023-03-09T10:36:43;99828.78;;;3.51;100.00
61018;BME280;48171;51.550;5.434;2023-03-09T10:39:15;99824.47;;;3.55;100.00
61018;BME280;48171;51.550;5.434;2023-03-09T10:41:41;99833.22;;;3.62;100.00
61018;BME280;48171;51.550;5.434;2023-03-09T10:44:06;99834.97;;;3.66;100.00
61018;BME280;48171;51.550;5.434;2023-03-09T10:46:56;99843.72;;;3.78;100.00
61018;BME280;48171;51.550;5.434;2023-03-09T10:49:21;99849.84;;;3.85;100.00
61018;BME280;48171;51.550;5.434;2023-03-09T10:51:58;99839.41;;;3.88;100.00
61018;BME280;48171;51.550;5.434;2023-03-09T10:54:39;99842.03;;;3.88;100.00
61018;BME280;48171;51.550;5.434;2023-03-09T10:57:22;99842.91;;;3.95;100.00
61018;BME280;48171;51.550;5.434;2023-03-09T11:00:03;99848.19;;;4.03;100.00
61018;BME280;48171;51.550;5.434;2023-03-09T11:02:34;99842.06;;;4.05;100.00
61018;BME280;48171;51.550;5.434;2023-03-09T11:05:13;99832.53;;;4.10;100.00
61018;BME280;48171;51.550;5.434;2023-03-09T11:07:49;99837.72;;;4.12;100.00
61018;BME280;48171;51.550;5.434;2023-03-09T11:10:21;99845.59;;;4.18;100.00
61018;BME280;48171;51.550;5.434;2023-03-09T11:12:48;99830.78;;;4.20;100.00
61018;BME280;48171;51.550;5.434;2023-03-09T11:17:40;99837.78;;;4.27;100.00
61018;BME280;48171;51.550;5.434;2023-03-09T11:22:44;99837.81;;;4.36;100.00
61018;BME280;48171;51.550;5.434;2023-03-09T11:25:16;99837.81;;;4.39;100.00
61018;BME280;48171;51.550;5.434;2023-03-09T11:27:47;99838.69;;;4.45;100.00
61018;BME280;48171;51.550;5.434;2023-03-09T11:30:16;99829.09;;;4.48;100.00
61018;BME280;48171;51.550;5.434;2023-03-09T11:32:42;99826.47;;;4.48;100.00
61018;BME280;48171;51.550;5.434;2023-03-09T11:35:17;99828.22;;;4.54;100.00
61018;BME280;48171;51.550;5.434;2023-03-09T11:37:53;99834.34;;;4.57;100.00
61018;BME280;48171;51.550;5.434;2023-03-09T11:40:22;99829.13;;;4.57;100.00
61018;BME280;48171;51.550;5.434;2023-03-09T11:42:53;99827.38;;;4.55;100.00
61018;BME280;48171;51.550;5.434;2023-03-09T11:45:24;99819.50;;;4.50;100.00
61018;BME280;48171;51.550;5.434;2023-03-09T11:47:56;99821.28;;;4.53;100.00
61018;BME280;48171;51.550;5.434;2023-03-09T11:50:27;99831.72;;;4.57;100.00
61018;BME280;48171;51.550;5.434;2023-03-09T11:52:59;99830.84;;;4.49;100.00
61018;BME280;48171;51.550;5.434;2023-03-09T11:55:38;99836.09;;;4.51;100.00
61018;BME280;48171;51.550;5.434;2023-03-09T11:58:11;99829.97;;;4.47;100.00
61018;BME280;48171;51.550;5.434;2023-03-09T12:00:43;99840.41;;;4.44;100.00
61018;BME280;48171;51.550;5.434;2023-03-09T12:03:11;99836.94;;;4.44;100.00
61018;BME280;48171;51.550;5.434;2023-03-09T12:05:51;99835.22;;;4.43;100.00
61018;BME280;48171;51.550;5.434;2023-03-09T12:08:31;99825.63;;;4.43;100.00
61018;BME280;48171;51.550;5.434;2023-03-09T12:13:56;99817.78;;;4.48;100.00
61018;BME280;48171;51.550;5.434;2023-03-09T12:16:27;99812.53;;;4.49;100.00
61018;BME280;48171;51.550;5.434;2023-03-09T12:19:01;99821.25;;;4.51;100.00
61018;BME280;48171;51.550;5.434;2023-03-09T12:21:32;99821.28;;;4.53;100.00
61018;BME280;48171;51.550;5.434;2023-03-09T12:23:58;99817.75;;;4.52;100.00
61018;BME280;48171;51.550;5.434;2023-03-09T12:26:30;99820.38;;;4.52;100.00
61018;BME280;48171;51.550;5.434;2023-03-09T12:31:42;99815.13;;;4.46;100.00
61018;BME280;48171;51.550;5.434;2023-03-09T12:36:35;99800.31;;;4.42;100.00
61018;BME280;48171;51.550;5.434;2023-03-09T12:49:51;99768.09;;;4.45;100.00
61018;BME280;48171;51.550;5.434;2023-03-09T13:00:57;99740.19;;;4.51;100.00
61018;BME280;48171;51.550;5.434;2023-03-09T13:03:32;99734.09;;;4.49;100.00
61018;BME280;48171;51.550;5.434;2023-03-09T13:11:37;99727.09;;;4.42;100.00
61018;BME280;48171;51.550;5.434;2023-03-09T13:16:56;99721.00;;;4.48;100.00
61018;BME280;48171;51.550;5.434;2023-03-09T13:24:30;99734.09;;;4.38;100.00
61018;BME280;48171;51.550;5.434;2023-03-09T13:27:14;99732.34;;;4.39;100.00
61018;BME280;48171;51.550;5.434;2023-03-09T13:29:52;99729.72;;;4.37;100.00
61018;BME280;48171;51.550;5.434;2023-03-09T13:34:54;99730.59;;;4.35;100.00
61018;BME280;48171;51.550;5.434;2023-03-09T13:37:23;99728.84;;;4.29;100.00
61018;BME280;48171;51.550;5.434;2023-03-09T13:39:59;99741.06;;;4.29;100.00
61018;BME280;48171;51.550;5.434;2023-03-09T13:42:26;99737.56;;;4.25;100.00
61018;BME280;48171;51.550;5.434;2023-03-09T13:44:51;99728.84;;;4.21;100.00
61018;BME280;48171;51.550;5.434;2023-03-09T13:47:50;99727.97;;;4.24;100.00
61018;BME280;48171;51.550;5.434;2023-03-09T13:50:17;99729.72;;;4.24;100.00
61018;BME280;48171;51.550;5.434;2023-03-09T13:55:27;99715.78;;;4.23;100.00
61018;BME280;48171;51.550;5.434;2023-03-09T13:57:54;99714.91;;;4.23;100.00
61018;BME280;48171;51.550;5.434;2023-03-09T14:00:30;99718.38;;;4.17;100.00
61018;BME280;48171;51.550;5.434;2023-03-09T14:02:55;99704.44;;;4.19;100.00
61018;BME280;48171;51.550;5.434;2023-03-09T14:05:22;99693.13;;;4.19;100.00
61018;BME280;48171;51.550;5.434;2023-03-09T14:07:53;99700.09;;;4.18;100.00